Portada
METAR-TAF:

METAR-TAF

Aeroports :

Kotah, Índia

latitud: 25-09-36N, longitud: 075-50-44E, altitud: 273 m

Observació

L'informe es va fer fa 15 hores i 7 minuts, a les 06:00 UTC
Vent 2 kt del Oest
Temperatura 39°C
Humitat 26%
Pressió 1005 hPa
Visibilitat: 5000 m
calitja

METAR: VIKO 260600Z 27002KT 5000 HZ NSC 39/16 Q1005 NOSIG

Hora: 02:37 (21:07 UTC)

Pronòstic

L'informe es va fer fa 22 hores i 7 minuts, a les 23:00 UTC
Pronòstic vàlid del 26 a les 00 UTC al 26 a les 09 UTC
Vent 3 kt amb direcció variable
Visibilitat: 4000 m
calitja
Evolucionant progressivament
l' 26 a les 06 UTC al 26 a les 08 UTC
Vent 8 kt del Oest/Nord-Oest
Visibilitat: 5000 m
Escasses núvols a una alçada de 10000 ft
calitja

TAF: VIKO 252300Z 2600/2609 VRB03KT 4000 HZ NSC BECMG 2606/2608 30008KT 5000 HZ FEW100

Observacions i pronòstics meteorològics de més de 4000 aeroports (METAR i TAF).

Les estacions disponibles són els punts grocs i vermells al mapa.

Posi el ratolí al punt desitjat per veure el nom de l'estació.

Feu clic per veure les observacions i els pronòstics meteorològics.

Per canviar el mapa: feu clic els botons verds amb una creu de color negre per apropar; al botó verd amb un guió per allunyar la imatge; o en les fletxes verdes per a mapes adjacents.


METAR-TAF: